Monday, November 20, 2017, 4:18 AM EST

KW99, Petersburg, Grant County Airport

Location: Petersburg, WV, United States Lat: 38.983
Local Time: 4:18 AM EST ( 9:18 GMT) Lon: -79.133
Time Zone: US/Eastern Elev: 961 ft

Show me the last for .
Show Decoded

2017-11-20 03:55 METAR KW99 200855Z AUTO 26018G27KT 240V300 10SM CLR 01/M07 A3007 RMK AO2
                 T00131068 =
2017-11-20 03:35 METAR KW99 200835Z AUTO 27015G23KT 240V310 10SM CLR 02/M07 A3007 RMK AO2
                 T00151067 =
2017-11-20 03:15 METAR KW99 200815Z AUTO 26014G27KT 10SM SCT042 02/M07 A3007 RMK AO2 T00161066 =
2017-11-20 02:55 METAR KW99 200755Z AUTO 28014G22KT 10SM SCT042 02/M06 A3007 RMK AO2 T00151058 =
2017-11-20 02:35 METAR KW99 200735Z AUTO 26007G21KT 10SM SCT042 SCT050 02/M06 A3006 RMK AO2
                 T00181059 =
2017-11-20 02:15 METAR KW99 200715Z AUTO 26007G20KT 10SM BKN044 BKN050 02/M06 A3006 RMK AO2
                 T00201059 =
2017-11-20 01:55 METAR KW99 200655Z AUTO 27012G26KT 10SM BKN046 BKN055 02/M06 A3004 RMK AO2
                 T00211061 =
2017-11-20 01:35 METAR KW99 200635Z AUTO 25013G23KT 10SM BKN046 BKN055 02/M06 A3004 RMK AO2
                 T00241063 =
2017-11-20 01:15 METAR KW99 200615Z AUTO 27010G16KT 200V290 10SM BKN048 BKN055 03/M06 A3003 RMK
                 AO2 T00251062 =
2017-11-20 00:55 METAR KW99 200555Z AUTO 28015G19KT 10SM BKN048 BKN055 03/M06 A3002 RMK AO2
                 T00251061 10045 20025 401450025 =
2017-11-20 00:35 METAR KW99 200535Z AUTO 24014G25KT 10SM BKN048 OVC055 03/M06 A3002 RMK AO2
                 T00271062 =
2017-11-20 00:15 METAR KW99 200515Z AUTO 25013G24KT 10SM OVC046 03/M06 A3002 RMK AO2 T00281061 =
2017-11-19 23:55 METAR KW99 200455Z AUTO 27013G20KT 10SM OVC048 03/M06 A3001 RMK AO2 T00301060 =
2017-11-19 23:35 METAR KW99 200435Z AUTO 26013G21KT 10SM OVC050 03/M06 A3000 RMK AO2 T00301062 =
2017-11-19 23:15 METAR KW99 200415Z AUTO 26009G18KT 220V300 10SM OVC050 03/M07 A3000 RMK AO2
                 T00311066 =
2017-11-19 22:55 METAR KW99 200355Z AUTO 28010G16KT 10SM OVC050 03/M06 A3000 RMK AO2 T00311064 =
2017-11-19 22:35 METAR KW99 200335Z AUTO 27011G20KT 10SM BKN060 04/M07 A2999 RMK AO2 T00351069 =
2017-11-19 22:15 METAR KW99 200315Z AUTO 26012G23KT 10SM BKN050 04/M06 A2998 RMK AO2 T00361063 =
2017-11-19 21:55 METAR KW99 200255Z AUTO 28014G23KT 220V300 10SM SCT050 OVC065 04/M06 A2999 RMK
                 AO2 T00391057 =
2017-11-19 21:35 METAR KW99 200235Z AUTO 28010G24KT 10SM BKN048 OVC065 04/M05 A2997 RMK AO2
                 T00411054 =
2017-11-19 21:15 METAR KW99 200215Z AUTO 29014G20KT 10SM BKN046 OVC050 04/M04 A2997 RMK AO2
                 T00401043 =
2017-11-19 20:55 METAR KW99 200155Z AUTO 27010G23KT 10SM BKN048 OVC055 04/M04 A2996 RMK AO2
                 T00421044 =
2017-11-19 20:35 METAR KW99 200135Z AUTO 28019G28KT 10SM BKN049 OVC065 04/M05 A2994 RMK AO2
                 T00431048 =
2017-11-19 20:15 METAR KW99 200115Z AUTO 27012G17KT 10SM SCT049 BKN065 04/M05 A2993 RMK AO2
                 T00411046 =
2017-11-19 19:55 METAR KW99 200055Z AUTO 30017G25KT 10SM BKN047 SCT050 SCT070 04/M04 A2993 RMK
                 AO2 T00371042 =
2017-11-19 19:35 METAR KW99 200035Z AUTO 31012G27KT 10SM SCT042 BKN050 BKN070 04/M02 A2992 RMK
                 AO2 T00361024 =
2017-11-19 19:15 METAR KW99 200015Z AUTO 28009KT 10SM -RA BKN041 OVC048 04/M02 A2992 RMK AO2
                 T00401016 =
2017-11-19 18:55 METAR KW99 192355Z AUTO 28009KT 10SM -DZ BKN044 BKN050 OVC065 05/M03 A2990 RMK
                 AO2 T00451031 10050 20030 =
2017-11-19 18:35 METAR KW99 192335Z AUTO 29009G17KT 10SM SCT048 OVC065 05/M03 A2990 RMK AO2
                 T00451035 =
2017-11-19 18:15 METAR KW99 192315Z AUTO 29012G21KT 10SM SCT050 BKN065 05/M04 A2990 RMK AO2
                 T00451041 =
2017-11-19 17:55 METAR KW99 192255Z AUTO 28013KT 10SM SCT050 04/M04 A2989 RMK AO2 T00421043 =
2017-11-19 17:35 METAR KW99 192235Z AUTO 28011KT 10SM SCT048 04/M03 A2987 RMK AO2 T00391034 =
2017-11-19 17:15 METAR KW99 192215Z AUTO 29014KT 10SM SCT036 SCT047 BKN065 04/M03 A2986 RMK AO2
                 T00371029 =
2017-11-19 16:55 METAR KW99 192155Z AUTO 29011G16KT 10SM SCT038 SCT045 OVC060 04/M02 A2987 RMK
                 AO2 T00361022 =
2017-11-19 16:35 METAR KW99 192135Z AUTO 31009KT 10SM -DZ SCT038 OVC045 05/M03 A2987 RMK AO2
                 T00461026 =
2017-11-19 16:15 METAR KW99 192115Z AUTO 28010G21KT 10SM SCT043 BKN049 OVC060 05/M03 A2984 RMK
                 AO2 T00461029 =
2017-11-19 15:55 METAR KW99 192055Z AUTO 28012G18KT 10SM BKN046 OVC060 05/M03 A2984 RMK AO2
                 T00481033 =
2017-11-19 15:35 METAR KW99 192035Z AUTO 00000KT 10SM BKN044 OVC050 05/M03 A2983 RMK AO2
                 T00501029 =
2017-11-19 15:15 METAR KW99 192015Z AUTO 27006KT 10SM BKN048 OVC055 05/M04 A2983 RMK AO2
                 T00471037 =
2017-11-19 14:55 METAR KW99 191955Z AUTO 28012G16KT 10SM BKN049 BKN055 OVC070 05/M04 A2982 RMK
                 AO2 T00501038 =
2017-11-19 14:35 METAR KW99 191935Z AUTO 31008G16KT 10SM BKN047 OVC055 05/M04 A2983 RMK AO2
                 T00501037 =
2017-11-19 14:15 METAR KW99 191915Z AUTO 30010G18KT 10SM BKN049 OVC065 05/M04 A2983 RMK AO2
                 T00481039 =
2017-11-19 13:55 METAR KW99 191855Z AUTO 29012G20KT 10SM BKN045 OVC055 05/M03 A2983 RMK AO2
                 T00481035 =
2017-11-19 13:35 METAR KW99 191835Z AUTO 31007KT 10SM BKN043 OVC050 05/M03 A2983 RMK AO2
                 T00461031 =
2017-11-19 13:15 METAR KW99 191815Z AUTO 32007G16KT 280V340 10SM -DZ BKN041 OVC047 05/M02 A2983
                 RMK AO2 T00471025 =
2017-11-19 12:55 METAR KW99 191755Z AUTO 31006KT 10SM OVC041 05/M02 A2981 RMK AO2 T00501022 10057
                 20043 =
2017-11-19 12:35 METAR KW99 191735Z AUTO 30013G16KT 10SM OVC041 05/M03 A2982 RMK AO2 T00501028 =
2017-11-19 12:15 METAR KW99 191715Z AUTO 31005G20KT 10SM OVC043 05/M03 A2982 RMK AO2 T00501032 =
2017-11-19 11:55 METAR KW99 191655Z AUTO 30010G16KT 10SM OVC041 05/M03 A2983 RMK AO2 T00491030 =
2017-11-19 11:35 METAR KW99 191635Z AUTO 29008G16KT 10SM OVC039 05/M02 A2983 RMK AO2 T00481023 =
2017-11-19 11:15 METAR KW99 191615Z AUTO 35003KT 10SM OVC037 05/M01 A2982 RMK AO2 T00471009 =
2017-11-19 10:55 METAR KW99 191555Z AUTO 35009G23KT 280V350 10SM BKN039 OVC046 05/M01 A2982 RMK
                 AO2 T00491007 =
2017-11-19 10:35 METAR KW99 191535Z AUTO 34005KT 10SM OVC041 05/00 A2981 RMK AO2 T00481004 =
2017-11-19 10:15 METAR KW99 191515Z AUTO 29008KT 250V320 10SM BKN043 OVC049 05/M01 A2980 RMK AO2
                 T00511013 =
2017-11-19 09:55 METAR KW99 191455Z AUTO 25014KT 10SM SCT043 OVC048 05/M02 A2979 RMK AO2
                 T00541020 =
2017-11-19 09:35 METAR KW99 191435Z AUTO 28007G14KT 10SM BKN043 OVC050 05/M02 A2978 RMK AO2
                 T00501020 =
2017-11-19 09:15 METAR KW99 191415Z AUTO 29012G24KT 10SM OVC040 05/M02 A2978 RMK AO2 T00501022 =
2017-11-19 08:55 METAR KW99 191355Z AUTO 28022G27KT 10SM OVC043 05/M02 A2977 RMK AO2 T00501023 =
2017-11-19 08:35 METAR KW99 191335Z AUTO 28013G23KT 10SM BKN043 OVC049 05/M02 A2976 RMK AO2
                 T00501025 =
2017-11-19 08:15 METAR KW99 191315Z AUTO 29015G32KT 10SM OVC043 06/M02 A2974 RMK AO2 T00551020 =
2017-11-19 07:55 METAR KW99 191255Z AUTO 30022G38KT 270V330 10SM OVC043 06/M02 A2972 RMK AO2 LTG
                 DSNT E T00561019 =
2017-11-19 07:35 METAR KW99 191235Z AUTO 28020G28KT 10SM BKN043 BKN049 BKN060 06/M02 A2970 RMK
                 AO2 T00561017 =
2017-11-19 07:15 METAR KW99 191215Z AUTO 29017G30KT 10SM BKN042 BKN047 06/M01 A2970 RMK AO2
                 T00551015 =
2017-11-19 06:55 METAR KW99 191155Z AUTO 26013G20KT 10SM BKN038 BKN044 BKN060 05/M01 A2969 RMK
                 AO2 60002 70004 T00541011 10145 20052 =
2017-11-19 06:35 METAR KW99 191135Z AUTO 29016G31KT 10SM SCT040 SCT047 BKN060 05/M01 A2968 RMK
                 AO2 T00541011 =
2017-11-19 06:15 METAR KW99 191115Z AUTO 27015G27KT 10SM SCT042 06/M01 A2966 RMK AO2 T00551013 =
2017-11-19 05:50 METAR KW99 191050Z AUTO 28014G37KT 10SM SCT040 06/M01 A2964 RMK AO2 T00571014 =
2017-11-19 05:35 METAR KW99 191035Z AUTO 29020G39KT 10SM SCT029 SCT036 SCT042 06/M02 A2963 RMK
                 AO2 T00591016 =
2017-11-19 05:15 METAR KW99 191015Z AUTO 27023G42KT 10SM -DZ SCT022 SCT029 OVC040 06/M01 A2961
                 RMK AO2 T00561008 =
2017-11-19 04:55 METAR KW99 190955Z AUTO 28023G42KT 10SM -DZ SCT037 BKN044 06/00 A2959 RMK AO2
                 T00621002 =
2017-11-19 04:35 METAR KW99 190935Z AUTO 28022G30KT 10SM SCT040 SCT045 07/00 A2957 RMK AO2
                 T00720000 =

Support USWX by starting your Amazon purchase here.